createdAt,value
2023-03-26T00:01:19.250Z,2.50
2023-03-26T00:03:47.089Z,3.13
2023-03-26T00:06:16.697Z,3.08
2023-03-26T00:08:45.792Z,2.50
2023-03-26T00:11:15.530Z,3.08
2023-03-26T00:13:43.891Z,2.97
2023-03-26T00:16:16.434Z,2.67
2023-03-26T00:18:43.652Z,3.83
2023-03-26T00:21:16.052Z,3.25
2023-03-26T00:23:43.687Z,3.22
2023-03-26T00:26:11.133Z,3.33
2023-03-26T00:28:40.563Z,3.00
2023-03-26T00:31:10.754Z,2.75
2023-03-26T00:33:38.564Z,2.13
2023-03-26T00:36:10.087Z,3.47
2023-03-26T00:38:39.092Z,3.27
2023-03-26T00:41:17.661Z,2.58
2023-03-26T00:43:49.269Z,2.33
2023-03-26T00:46:17.624Z,2.40
2023-03-26T00:48:46.152Z,2.40
2023-03-26T00:51:15.509Z,1.97
2023-03-26T00:53:44.250Z,2.17
2023-03-26T00:56:11.439Z,2.83
2023-03-26T00:58:38.146Z,2.40
2023-03-26T01:01:13.790Z,2.55
2023-03-26T01:03:45.755Z,3.23
2023-03-26T01:06:28.478Z,3.95
2023-03-26T01:09:00.067Z,2.58
2023-03-26T01:11:29.764Z,3.10
2023-03-26T01:14:00.988Z,2.72
2023-03-26T01:16:33.180Z,2.80
2023-03-26T01:19:00.469Z,2.20
2023-03-26T01:21:30.396Z,1.70
2023-03-26T01:23:59.927Z,3.17
2023-03-26T01:26:49.339Z,3.72
2023-03-26T01:29:36.055Z,4.50
2023-03-26T01:32:14.621Z,4.00
2023-03-26T01:34:51.829Z,4.05
2023-03-26T01:37:37.916Z,3.83
2023-03-26T01:40:13.105Z,2.63
2023-03-26T01:42:48.013Z,3.60
2023-03-26T01:45:23.741Z,2.60
2023-03-26T01:47:50.512Z,1.98
2023-03-26T01:50:17.251Z,5.07
2023-03-26T01:52:43.772Z,1.73
2023-03-26T01:55:11.754Z,2.50
2023-03-26T01:57:44.285Z,1.70
2023-03-26T02:00:18.044Z,2.08
2023-03-26T02:02:55.122Z,2.10
2023-03-26T02:05:43.999Z,2.33
2023-03-26T02:08:22.671Z,1.63
2023-03-26T02:10:54.918Z,2.17
2023-03-26T02:13:21.952Z,2.22
2023-03-26T02:16:00.112Z,2.22
2023-03-26T02:18:36.116Z,2.00
2023-03-26T02:21:10.918Z,2.10
2023-03-26T02:23:37.705Z,2.17
2023-03-26T02:26:09.233Z,2.38
2023-03-26T02:28:36.476Z,1.75
2023-03-26T02:31:03.497Z,2.50
2023-03-26T02:33:30.554Z,1.80
2023-03-26T02:36:02.411Z,2.25
2023-03-26T02:38:33.686Z,2.20
2023-03-26T02:41:00.583Z,1.90
2023-03-26T02:43:27.124Z,2.70
2023-03-26T02:45:53.978Z,1.83
2023-03-26T02:48:20.957Z,1.98
2023-03-26T02:50:50.182Z,2.30
2023-03-26T02:53:17.245Z,2.30
2023-03-26T02:55:43.728Z,2.95
2023-03-26T02:58:12.207Z,2.30
2023-03-26T03:00:38.705Z,2.38
2023-03-26T03:03:07.480Z,2.47
2023-03-26T03:05:34.310Z,3.85
2023-03-26T03:08:00.888Z,2.10
2023-03-26T03:10:28.655Z,2.40
2023-03-26T03:12:55.260Z,2.15
2023-03-26T03:15:21.688Z,2.78
2023-03-26T03:17:48.233Z,2.90
2023-03-26T03:20:15.404Z,3.00
2023-03-26T03:22:41.997Z,2.67
2023-03-26T03:25:14.169Z,3.63
2023-03-26T03:27:42.712Z,3.70
2023-03-26T03:30:10.998Z,3.13
2023-03-26T03:32:37.603Z,3.10
2023-03-26T03:35:04.633Z,3.67
2023-03-26T03:37:31.231Z,3.13
2023-03-26T03:39:57.729Z,4.50
2023-03-26T03:42:24.470Z,3.88
2023-03-26T03:44:51.401Z,4.95
2023-03-26T03:47:17.905Z,5.67
2023-03-26T03:49:44.305Z,4.65
2023-03-26T03:52:10.780Z,5.40
2023-03-26T03:54:37.694Z,4.75
2023-03-26T03:57:04.219Z,5.60
2023-03-26T03:59:30.657Z,5.03
2023-03-26T04:01:57.053Z,5.05
2023-03-26T04:04:24.645Z,5.00
2023-03-26T04:06:52.426Z,6.45
2023-03-26T04:09:19.457Z,5.95
2023-03-26T04:11:46.028Z,5.57
2023-03-26T04:14:12.457Z,6.32
2023-03-26T04:16:38.880Z,6.43
2023-03-26T04:19:05.290Z,5.53
2023-03-26T04:21:32.053Z,6.10
2023-03-26T04:23:58.572Z,5.33
2023-03-26T04:26:25.023Z,8.27
2023-03-26T04:28:55.172Z,5.80
2023-03-26T04:31:29.084Z,7.05
2023-03-26T04:34:01.435Z,5.38
2023-03-26T04:36:32.101Z,5.33
2023-03-26T04:39:02.885Z,5.22
2023-03-26T04:41:30.179Z,5.50
2023-03-26T04:43:56.825Z,5.85
2023-03-26T04:46:23.850Z,5.53
2023-03-26T04:48:54.574Z,5.93
2023-03-26T04:51:25.416Z,5.68
2023-03-26T04:53:54.243Z,5.63
2023-03-26T04:56:49.187Z,6.20
2023-03-26T04:59:20.190Z,5.35
2023-03-26T05:01:46.726Z,7.30
2023-03-26T05:04:13.786Z,7.32
2023-03-26T05:06:41.733Z,5.90
2023-03-26T05:09:10.675Z,6.65
2023-03-26T05:11:37.532Z,5.53
2023-03-26T05:14:05.937Z,5.27
2023-03-26T05:16:32.553Z,6.50
2023-03-26T05:18:59.434Z,5.63
2023-03-26T05:21:25.879Z,7.07
2023-03-26T05:23:52.760Z,6.57
2023-03-26T05:26:19.683Z,7.07
2023-03-26T05:28:46.235Z,6.13
2023-03-26T05:31:12.686Z,7.03
2023-03-26T05:33:39.232Z,6.57
2023-03-26T05:36:14.033Z,5.75
2023-03-26T05:38:40.971Z,6.77
2023-03-26T05:41:09.940Z,7.55
2023-03-26T05:43:36.696Z,5.78
2023-03-26T05:46:04.000Z,6.75
2023-03-26T05:48:30.746Z,6.30
2023-03-26T05:50:58.500Z,6.27
2023-03-26T05:53:27.040Z,7.22
2023-03-26T05:55:57.813Z,5.95
2023-03-26T05:58:33.144Z,6.38
2023-03-26T06:01:05.470Z,6.78
2023-03-26T06:03:37.867Z,6.60
2023-03-26T06:06:09.256Z,6.57
2023-03-26T06:08:36.193Z,6.05
2023-03-26T06:11:05.482Z,5.90
2023-03-26T06:13:31.907Z,6.60
2023-03-26T06:15:58.398Z,7.03
2023-03-26T06:18:26.036Z,6.55
2023-03-26T06:20:53.288Z,7.03
2023-03-26T06:23:20.041Z,5.75
2023-03-26T06:25:46.661Z,5.63
2023-03-26T06:28:13.556Z,5.97
2023-03-26T06:30:40.303Z,6.20
2023-03-26T06:33:07.024Z,5.95
2023-03-26T06:35:33.681Z,6.68
2023-03-26T06:38:00.688Z,6.13
2023-03-26T06:40:27.193Z,6.00
2023-03-26T06:43:07.562Z,6.78
2023-03-26T06:45:38.048Z,7.38
2023-03-26T06:48:05.347Z,6.68
2023-03-26T06:50:32.771Z,6.20
2023-03-26T06:52:59.353Z,7.00
2023-03-26T06:55:25.996Z,5.63
2023-03-26T06:57:54.424Z,5.53
2023-03-26T07:00:21.439Z,6.88
2023-03-26T07:02:47.908Z,7.03
2023-03-26T07:05:15.610Z,7.40
2023-03-26T07:07:46.817Z,6.80
2023-03-26T07:10:14.315Z,6.50
2023-03-26T07:12:42.380Z,6.35
2023-03-26T07:15:10.198Z,6.13
2023-03-26T07:17:37.041Z,6.40
2023-03-26T07:20:08.067Z,8.18
2023-03-26T07:22:35.328Z,7.53
2023-03-26T07:25:02.373Z,8.07
2023-03-26T07:27:36.196Z,6.85
2023-03-26T07:30:12.358Z,7.53
2023-03-26T07:33:03.579Z,7.57
2023-03-26T07:35:48.581Z,7.10
2023-03-26T07:38:40.290Z,6.95
2023-03-26T07:41:19.801Z,7.47
2023-03-26T07:44:04.589Z,7.90
2023-03-26T07:46:34.448Z,6.65
2023-03-26T07:49:01.820Z,7.95
2023-03-26T07:51:29.285Z,7.38
2023-03-26T07:53:57.600Z,7.43
2023-03-26T07:56:58.648Z,6.83
2023-03-26T07:59:51.530Z,7.30
2023-03-26T08:02:43.418Z,7.30
2023-03-26T08:05:21.581Z,7.43
2023-03-26T08:08:23.124Z,8.32
2023-03-26T08:11:09.345Z,7.77
2023-03-26T08:14:06.899Z,7.10
2023-03-26T08:16:41.146Z,6.28
2023-03-26T08:19:43.168Z,6.55
2023-03-26T08:22:26.289Z,7.13
2023-03-26T08:25:27.681Z,6.27
2023-03-26T08:28:39.107Z,6.28
2023-03-26T08:31:07.997Z,6.40
2023-03-26T08:33:38.279Z,7.88
2023-03-26T08:36:05.895Z,6.75
2023-03-26T08:38:32.416Z,6.37
2023-03-26T08:41:11.268Z,6.78
2023-03-26T08:43:59.215Z,7.25
2023-03-26T08:46:50.450Z,7.95
2023-03-26T08:49:54.389Z,7.53
2023-03-26T08:52:33.023Z,9.13
2023-03-26T08:55:28.328Z,7.97
2023-03-26T08:58:19.271Z,7.63
2023-03-26T09:01:27.720Z,7.60
2023-03-26T09:04:12.745Z,8.55
2023-03-26T09:06:48.359Z,8.97
2023-03-26T09:09:33.941Z,9.75
2023-03-26T09:12:06.553Z,9.73
2023-03-26T09:15:03.847Z,8.57
2023-03-26T09:18:08.057Z,9.20
2023-03-26T09:20:56.659Z,8.97
2023-03-26T09:23:52.544Z,8.82
2023-03-26T09:26:39.973Z,7.65
2023-03-26T09:29:22.938Z,9.52
2023-03-26T09:32:17.648Z,7.95
2023-03-26T09:34:56.792Z,7.67
2023-03-26T09:37:56.443Z,7.32
2023-03-26T09:40:38.671Z,7.57
2023-03-26T09:43:55.643Z,6.43
2023-03-26T09:46:40.772Z,6.18
2023-03-26T09:49:15.574Z,6.53
2023-03-26T09:52:01.510Z,6.70
2023-03-26T09:54:56.010Z,6.88
2023-03-26T09:57:53.537Z,7.80
2023-03-26T10:00:33.381Z,6.03
2023-03-26T10:03:17.467Z,6.67
2023-03-26T10:05:50.068Z,5.60
2023-03-26T10:08:16.628Z,5.18
2023-03-26T10:10:57.591Z,5.60
2023-03-26T10:13:52.139Z,5.63
2023-03-26T10:16:41.893Z,5.33
2023-03-26T10:19:16.766Z,5.03
2023-03-26T10:21:54.023Z,4.97
2023-03-26T10:25:10.927Z,5.38
2023-03-26T10:28:05.733Z,4.72
2023-03-26T10:30:43.584Z,5.20
2023-03-26T10:33:59.020Z,4.53
2023-03-26T10:36:43.424Z,4.97
2023-03-26T10:39:47.708Z,4.65
2023-03-26T10:42:31.518Z,4.28
2023-03-26T10:45:07.700Z,4.10
2023-03-26T10:47:55.292Z,4.18
2023-03-26T10:50:48.809Z,3.35
2023-03-26T10:53:31.132Z,3.45
2023-03-26T10:56:17.016Z,3.45
2023-03-26T10:58:49.482Z,3.40
2023-03-26T11:01:43.035Z,3.15
2023-03-26T11:04:24.421Z,3.88
2023-03-26T11:07:19.081Z,3.33
2023-03-26T11:10:03.333Z,3.42
2023-03-26T11:12:56.123Z,2.50
2023-03-26T11:15:53.374Z,2.78
2023-03-26T11:18:36.282Z,3.20
2023-03-26T11:21:19.090Z,3.58
2023-03-26T11:24:04.530Z,2.92
2023-03-26T11:27:14.902Z,2.63
2023-03-26T11:29:51.845Z,3.10
2023-03-26T11:32:27.303Z,2.30
2023-03-26T11:35:14.231Z,2.80
2023-03-26T11:37:43.704Z,2.45
2023-03-26T11:40:43.638Z,2.67
2023-03-26T11:43:13.432Z,2.53
2023-03-26T11:45:45.004Z,3.83
2023-03-26T11:48:22.601Z,2.60
2023-03-26T11:50:53.909Z,2.90
2023-03-26T11:53:31.986Z,2.60
2023-03-26T11:56:14.964Z,3.20
2023-03-26T11:58:54.828Z,2.95
2023-03-26T12:01:32.624Z,2.88
2023-03-26T12:04:25.117Z,3.05
2023-03-26T12:06:51.697Z,2.73
2023-03-26T12:09:19.915Z,3.85
2023-03-26T12:11:48.689Z,2.47
2023-03-26T12:14:21.834Z,2.70
2023-03-26T12:17:07.469Z,2.78
2023-03-26T12:19:45.408Z,2.27
2023-03-26T12:22:43.439Z,2.65
2023-03-26T12:25:16.763Z,1.80
2023-03-26T12:27:58.824Z,2.28
2023-03-26T12:30:31.437Z,2.58
2023-03-26T12:33:03.920Z,2.50
2023-03-26T12:35:35.330Z,2.63
2023-03-26T12:38:17.073Z,2.17
2023-03-26T12:40:45.094Z,1.67
2023-03-26T12:44:55.666Z,1.55
2023-03-26T12:47:56.147Z,1.43
2023-03-26T12:49:14.482Z,1.83
2023-03-26T12:51:43.911Z,1.40
2023-03-26T12:54:28.786Z,1.95
2023-03-26T12:57:20.492Z,2.08
2023-03-26T13:00:21.337Z,1.50
2023-03-26T13:03:00.128Z,1.30
2023-03-26T13:05:36.430Z,1.30
2023-03-26T13:08:39.560Z,1.02
2023-03-26T13:11:30.523Z,0.88
2023-03-26T13:14:14.876Z,1.60
2023-03-26T13:16:46.610Z,1.60
2023-03-26T13:19:23.682Z,1.95
2023-03-26T13:24:51.240Z,1.63
2023-03-26T13:27:30.450Z,1.17
2023-03-26T13:30:07.564Z,1.80
2023-03-26T13:32:49.633Z,1.30
2023-03-26T13:35:20.353Z,1.17
2023-03-26T13:38:00.414Z,1.60
2023-03-26T13:40:29.810Z,1.93
2023-03-26T13:43:22.217Z,1.23
2023-03-26T13:46:05.384Z,2.15
2023-03-26T13:48:42.727Z,1.10
2023-03-26T13:51:48.405Z,1.23
2023-03-26T13:54:23.980Z,1.30
2023-03-26T13:57:13.917Z,1.45
2023-03-26T13:59:47.609Z,1.92
2023-03-26T14:02:28.050Z,1.13
2023-03-26T14:05:02.074Z,1.08
2023-03-26T14:07:40.620Z,1.37
2023-03-26T14:10:10.701Z,0.90
2023-03-26T14:12:55.819Z,1.20
2023-03-26T14:15:29.421Z,1.42
2023-03-26T14:18:06.119Z,0.90
2023-03-26T14:21:26.608Z,1.87
2023-03-26T14:24:11.858Z,0.82
2023-03-26T14:26:58.633Z,1.30
2023-03-26T14:29:56.722Z,1.00
2023-03-26T14:32:33.439Z,0.80
2023-03-26T14:35:20.371Z,1.17
2023-03-26T14:37:58.767Z,0.98
2023-03-26T14:40:46.789Z,1.13
2023-03-26T14:44:10.981Z,1.00
2023-03-26T14:46:52.331Z,0.80
2023-03-26T14:49:36.870Z,1.30
2023-03-26T14:52:31.534Z,0.77
2023-03-26T14:55:03.702Z,1.17
2023-03-26T14:58:03.907Z,0.88
2023-03-26T15:00:38.962Z,1.20
2023-03-26T15:03:39.448Z,1.27
2023-03-26T15:06:38.247Z,0.95
2023-03-26T15:09:25.874Z,1.35
2023-03-26T15:12:12.309Z,0.95
2023-03-26T15:15:26.263Z,0.70
2023-03-26T15:18:11.810Z,1.33
2023-03-26T15:21:11.407Z,1.00
2023-03-26T15:23:57.933Z,1.20
2023-03-26T15:26:46.529Z,1.65
2023-03-26T15:29:31.973Z,1.63
2023-03-26T15:32:34.252Z,1.37
2023-03-26T15:35:09.838Z,0.88
2023-03-26T15:37:59.594Z,1.30
2023-03-26T15:40:36.504Z,1.20
2023-03-26T15:43:14.813Z,1.15
2023-03-26T15:46:26.560Z,2.10
2023-03-26T15:49:03.693Z,1.10
2023-03-26T15:52:07.923Z,0.90
2023-03-26T15:55:16.077Z,1.10
2023-03-26T15:57:57.027Z,1.00
2023-03-26T16:00:26.472Z,1.50
2023-03-26T16:02:53.963Z,0.90
2023-03-26T16:05:24.212Z,0.90
2023-03-26T16:08:20.483Z,1.20
2023-03-26T16:11:00.377Z,1.60
2023-03-26T16:13:33.527Z,1.10
2023-03-26T16:16:03.349Z,5.78
2023-03-26T16:18:41.101Z,2.20
2023-03-26T16:21:31.855Z,1.23
2023-03-26T16:24:02.177Z,2.55
2023-03-26T16:26:31.490Z,3.83
2023-03-26T16:29:18.485Z,1.92
2023-03-26T16:32:13.814Z,1.27
2023-03-26T16:35:02.002Z,2.30
2023-03-26T16:37:32.016Z,3.00
2023-03-26T16:40:20.904Z,0.97
2023-03-26T16:43:00.313Z,1.08
2023-03-26T16:45:49.520Z,0.90
2023-03-26T16:48:25.306Z,2.08
2023-03-26T16:51:11.601Z,2.03
2023-03-26T16:53:41.650Z,2.90
2023-03-26T16:56:10.885Z,2.20
2023-03-26T16:58:56.292Z,2.10
2023-03-26T17:01:22.926Z,1.98
2023-03-26T17:04:12.945Z,2.53
2023-03-26T17:06:48.249Z,2.77
2023-03-26T17:09:28.419Z,1.65
2023-03-26T17:12:03.086Z,1.00
2023-03-26T17:14:48.948Z,0.80
2023-03-26T17:17:37.434Z,0.70
2023-03-26T17:20:11.708Z,1.57
2023-03-26T17:23:10.885Z,1.30
2023-03-26T17:25:52.506Z,1.13
2023-03-26T17:28:25.080Z,1.02
2023-03-26T17:31:03.277Z,0.98
2023-03-26T17:33:38.763Z,0.80
2023-03-26T17:36:11.444Z,1.13
2023-03-26T17:38:45.474Z,1.23
2023-03-26T17:41:31.833Z,1.02
2023-03-26T17:43:58.379Z,1.50
2023-03-26T17:46:46.524Z,1.63
2023-03-26T17:49:22.190Z,0.82
2023-03-26T17:51:57.936Z,1.23
2023-03-26T17:54:41.340Z,0.85
2023-03-26T17:57:16.664Z,0.55
2023-03-26T17:59:45.091Z,0.87
2023-03-26T18:02:33.082Z,0.73
2023-03-26T18:05:01.924Z,1.20
2023-03-26T18:08:10.215Z,1.08
2023-03-26T18:10:51.579Z,0.80
2023-03-26T18:13:45.300Z,0.80
2023-03-26T18:16:45.694Z,1.13
2023-03-26T18:19:19.407Z,1.20
2023-03-26T18:21:50.314Z,1.25
2023-03-26T18:24:25.177Z,1.00
2023-03-26T18:27:05.132Z,1.37
2023-03-26T18:29:35.834Z,1.02
2023-03-26T18:32:22.209Z,0.70
2023-03-26T18:34:53.727Z,1.10
2023-03-26T18:37:24.186Z,1.48
2023-03-26T18:40:02.430Z,0.77
2023-03-26T18:42:31.721Z,0.82
2023-03-26T18:45:04.672Z,1.48
2023-03-26T18:47:31.974Z,0.93
2023-03-26T18:49:59.985Z,1.88
2023-03-26T18:52:29.366Z,0.73
2023-03-26T18:54:59.000Z,1.67
2023-03-26T18:57:28.422Z,0.80
2023-03-26T19:00:10.022Z,1.10
2023-03-26T19:02:37.853Z,1.90
2023-03-26T19:05:04.936Z,1.37
2023-03-26T19:07:31.696Z,0.75
2023-03-26T19:10:01.332Z,0.90
2023-03-26T19:12:32.493Z,1.85
2023-03-26T19:15:09.044Z,2.40
2023-03-26T19:17:41.343Z,2.07
2023-03-26T19:20:16.486Z,4.88
2023-03-26T19:22:44.696Z,2.72
2023-03-26T19:25:28.072Z,1.42
2023-03-26T19:27:55.005Z,1.38
2023-03-26T19:30:31.759Z,1.03
2023-03-26T19:33:13.875Z,1.60
2023-03-26T19:35:42.215Z,1.50
2023-03-26T19:38:22.690Z,1.38
2023-03-26T19:40:51.974Z,1.67
2023-03-26T19:43:19.478Z,1.07
2023-03-26T19:46:00.399Z,0.95
2023-03-26T19:48:45.507Z,1.05
2023-03-26T19:51:20.255Z,1.27
2023-03-26T19:53:58.210Z,1.63
2023-03-26T19:56:24.756Z,0.70
2023-03-26T19:58:51.335Z,1.02
2023-03-26T20:01:27.206Z,0.80
2023-03-26T20:04:00.969Z,1.00
2023-03-26T20:06:42.557Z,1.20
2023-03-26T20:09:12.612Z,0.87
2023-03-26T20:11:40.368Z,1.00
2023-03-26T20:14:14.526Z,0.70
2023-03-26T20:19:29.536Z,1.38
2023-03-26T20:21:56.421Z,0.67
2023-03-26T20:24:24.726Z,0.50
2023-03-26T20:26:51.141Z,0.52
2023-03-26T20:29:17.810Z,0.70
2023-03-26T20:31:44.428Z,0.93
2023-03-26T20:34:19.870Z,0.83
2023-03-26T20:36:47.253Z,0.85
2023-03-26T20:39:14.221Z,0.60
2023-03-26T20:41:45.602Z,0.75
2023-03-26T20:44:15.334Z,0.90
2023-03-26T20:46:43.353Z,1.47
2023-03-26T20:49:10.829Z,4.90
2023-03-26T20:51:38.438Z,0.95
2023-03-26T20:54:17.561Z,0.93
2023-03-26T20:56:45.561Z,0.70
2023-03-26T20:59:17.683Z,0.57
2023-03-26T21:01:44.550Z,0.50
2023-03-26T21:04:11.610Z,0.60
2023-03-26T21:06:38.064Z,0.93
2023-03-26T21:09:05.025Z,0.60
2023-03-26T21:11:55.685Z,0.77
2023-03-26T21:14:27.586Z,0.60
2023-03-26T21:16:54.350Z,0.55
2023-03-26T21:19:21.227Z,0.90
2023-03-26T21:22:29.345Z,0.88
2023-03-26T21:25:24.253Z,1.47
2023-03-26T21:28:09.340Z,0.85
2023-03-26T21:30:36.158Z,1.05
2023-03-26T21:33:05.191Z,1.02
2023-03-26T21:35:32.241Z,0.65
2023-03-26T21:37:58.983Z,0.90
2023-03-26T21:40:26.041Z,0.80
2023-03-26T21:42:54.200Z,0.80
2023-03-26T21:45:21.981Z,0.57
2023-03-26T21:47:49.002Z,0.50
2023-03-26T21:50:21.744Z,0.80
2023-03-26T21:52:48.921Z,0.52
2023-03-26T21:55:20.188Z,0.55
2023-03-26T21:58:05.454Z,0.63
2023-03-26T22:01:12.186Z,0.75
2023-03-26T22:03:54.127Z,0.87
2023-03-26T22:06:48.970Z,0.50
2023-03-26T22:09:18.524Z,0.80
2023-03-26T22:11:47.329Z,0.70
2023-03-26T22:14:14.161Z,0.50
2023-03-26T22:16:41.625Z,0.70
2023-03-26T22:19:08.604Z,0.70
2023-03-26T22:21:35.972Z,0.50
2023-03-26T22:24:04.690Z,0.60
2023-03-26T22:26:31.273Z,0.80
2023-03-26T22:28:58.259Z,0.57
2023-03-26T22:31:26.419Z,0.35
2023-03-26T22:33:54.573Z,1.02
2023-03-26T22:36:23.513Z,0.52
2023-03-26T22:38:53.189Z,0.57
2023-03-26T22:41:19.831Z,0.50
2023-03-26T22:43:46.407Z,0.73
2023-03-26T22:46:13.698Z,0.50
2023-03-26T22:48:40.633Z,0.80
2023-03-26T22:51:10.217Z,0.77
2023-03-26T22:53:37.171Z,0.83
2023-03-26T22:56:04.490Z,0.65
2023-03-26T22:58:32.722Z,0.60
2023-03-26T23:01:08.225Z,0.80
2023-03-26T23:03:35.811Z,0.50
2023-03-26T23:06:06.240Z,0.63
2023-03-26T23:08:33.099Z,0.73
2023-03-26T23:10:59.634Z,0.70
2023-03-26T23:13:26.575Z,0.70
2023-03-26T23:15:55.143Z,0.60
2023-03-26T23:18:22.866Z,0.93
2023-03-26T23:20:59.418Z,0.77
2023-03-26T23:23:28.763Z,0.80
2023-03-26T23:26:00.467Z,0.75
2023-03-26T23:28:30.173Z,0.95
2023-03-26T23:30:56.866Z,0.50
2023-03-26T23:33:26.299Z,0.70
2023-03-26T23:35:57.788Z,0.65
2023-03-26T23:38:25.527Z,0.82
2023-03-26T23:40:57.408Z,1.05
2023-03-26T23:43:25.040Z,0.83
2023-03-26T23:45:52.157Z,0.95
2023-03-26T23:48:24.519Z,0.70
2023-03-26T23:50:52.749Z,0.95
2023-03-26T23:53:31.923Z,0.80
2023-03-26T23:55:58.772Z,0.77
2023-03-26T23:58:29.998Z,0.90
